Current Conditions
Mostly Clear
Conditions



Pressure
29.85 (inHG) - 1010.92 (mb)
Visibility

6.2 (miles) - 10.0 (km)
Temperature
68  °F
Temperature
63  °F
Dewpoint
83  %
 Humidity
Wind Speed
6  mph
5  kts
10  km/h
2.7  m/s
Wind Direction
N
45°
E
90°
135°
S
180°
225°
W
270°
315°
 30°

North North
East
Airport Data
LTBA
İstanbul Atatürk Airport
Metar :LTBA 210350Z 03005KT CAVOK 20/17 Q1011 NOSIG RMK RWY23 03006KT
Sun 20th June 22:50 pm
Raw Metar Info
Raw METAR is the most common format in the world for the transmission of observational weather data. It is highly standardized through the International Civil Aviation Organization (ICAO), which allows it to be understood throughout most of the world.
API Info
Data Provided by
https://www.checkwx.com/weather/LTBA

Aviation Weather providing METAR, TAF, AIRMET, SIGMET and OUTLOOK Weather Reports
© Info
CSS/SVG/PHP scripts were developed by weather34.com for use in the weather34 template © 2015-2021

Guide Info provided by Metar-Wikipedia